• Join FlightAware (Why Join?)
  • Login
  • US Flag 
11:15AM EDT


 

Airport Tracker/Info


-or-


 

Live Flight TrackerFlight Track Log ✈ CES543 ✈ 05-Jul-2013 ✈ ZSPD / PVG - WSSS / SIN

Flight Track Log - Related Links

Times and Time Zones

All times are in EDT time to prevent confusion due to time zone crossing. See the CES543 flight status page for this flight to view local times or setup timezone preferences in your user account.

Time Position Orientation Groundspeed Altitude Reporting Facility
EDT Latitude Longitude Course Direction KTS MPH feet Rate Location/Type
04:10PM 30.3177 121.1745 213° Southwest  Level Estimated
04:11PM 30.2144 121.0980 213° Southwest  Level Estimated
04:12PM 30.1110 121.0216 213° Southwest  Level Estimated
04:13PM 30.0075 120.9455 213° Southwest  Level Estimated
04:14PM 29.9041 120.8694 212° Southwest  Level Estimated
04:15PM 29.8006 120.7936 212° Southwest  Level Estimated
04:16PM 29.6970 120.7179 212° Southwest  Level Estimated
04:17PM 29.5934 120.6423 212° Southwest  Level Estimated
04:18PM 29.4898 120.5669 212° Southwest  Level Estimated
04:19PM 29.3861 120.4917 212° Southwest  Level Estimated
04:20PM 29.2823 120.4166 212° Southwest  Level Estimated
04:21PM 29.1786 120.3417 212° Southwest  Level Estimated
04:22PM 29.0748 120.2669 212° Southwest  Level Estimated
04:23PM 28.9709 120.1923 212° Southwest  Level Estimated
04:24PM 28.8670 120.1178 212° Southwest  Level Estimated
04:25PM 28.7631 120.0434 212° Southwest  Level Estimated
04:26PM 28.6591 119.9693 212° Southwest  Level Estimated
04:27PM 28.5551 119.8952 212° Southwest  Level Estimated
04:28PM 28.4510 119.8213 212° Southwest  Level Estimated
04:29PM 28.3469 119.7476 212° Southwest  Level Estimated
04:30PM 28.2428 119.6740 212° Southwest  Level Estimated
04:31PM 28.1386 119.6005 212° Southwest  Level Estimated
04:32PM 28.0344 119.5272 212° Southwest  Level Estimated
04:33PM 27.9301 119.4540 212° Southwest  Level Estimated
04:34PM 27.8258 119.3810 212° Southwest  Level Estimated
04:35PM 27.7215 119.3081 212° Southwest  Level Estimated
04:36PM 27.6171 119.2353 212° Southwest  Level Estimated
04:37PM 27.5127 119.1627 212° Southwest  Level Estimated
04:38PM 27.4083 119.0902 212° Southwest  Level Estimated
04:39PM 27.3038 119.0179 212° Southwest  Level Estimated
04:40PM 27.1993 118.9457 212° Southwest  Level Estimated
04:41PM 27.0947 118.8736 212° Southwest  Level Estimated
04:42PM 26.9901 118.8017 212° Southwest  Level Estimated
04:43PM 26.8855 118.7299 211° Southwest  Level Estimated
04:44PM 26.7808 118.6582 211° Southwest  Level Estimated
04:45PM 26.6761 118.5867 211° Southwest  Level Estimated
04:46PM 26.5714 118.5153 211° Southwest  Level Estimated
04:47PM 26.4666 118.4440 211° Southwest  Level Estimated
04:48PM 26.3618 118.3728 211° Southwest  Level Estimated
04:49PM 26.2570 118.3018 211° Southwest  Level Estimated
04:50PM 26.1521 118.2309 211° Southwest  Level Estimated
04:51PM 26.0472 118.1602 211° Southwest  Level Estimated
04:52PM 25.9422 118.0895 211° Southwest  Level Estimated
04:53PM 25.8372 118.0190 211° Southwest  Level Estimated
04:54PM 25.7322 117.9486 211° Southwest  Level Estimated
04:55PM 25.6272 117.8784 211° Southwest  Level Estimated
04:56PM 25.5221 117.8082 211° Southwest  Level Estimated
04:57PM 25.4170 117.7382 211° Southwest  Level Estimated
04:58PM 25.3118 117.6683 211° Southwest  Level Estimated
04:59PM 25.2066 117.5986 211° Southwest  Level Estimated
05:00PM 25.1014 117.5289 211° Southwest  Level Estimated
05:01PM 24.9962 117.4594 211° Southwest  Level Estimated
05:02PM 24.8909 117.3900 211° Southwest  Level Estimated
05:03PM 24.7856 117.3207 211° Southwest  Level Estimated
05:04PM 24.6803 117.2515 211° Southwest  Level Estimated
05:05PM 24.5749 117.1824 211° Southwest  Level Estimated
05:06PM 24.4695 117.1135 211° Southwest  Level Estimated
05:07PM 24.3640 117.0447 211° Southwest  Level Estimated
05:08PM 24.2586 116.9760 211° Southwest  Level Estimated
05:09PM 24.1531 116.9074 211° Southwest  Level Estimated
05:10PM 24.0475 116.8389 211° Southwest  Level Estimated
05:11PM 23.9420 116.7705 211° Southwest  Level Estimated
05:12PM 23.8364 116.7022 211° Southwest  Level Estimated
05:13PM 23.7308 116.6341 211° Southwest  Level Estimated
05:14PM 23.6251 116.5661 211° Southwest  Level Estimated
05:15PM 23.5194 116.4981 211° Southwest  Level Estimated
05:16PM 23.4137 116.4303 210° Southwest  Level Estimated
05:17PM 23.3080 116.3626 210° Southwest  Level Estimated
05:18PM 23.2022 116.2950 210° Southwest  Level Estimated
05:19PM 23.0964 116.2275 210° Southwest  Level Estimated
05:20PM 22.9906 116.1601 210° Southwest  Level Estimated
05:21PM 22.8847 116.0928 210° Southwest  Level Estimated
05:22PM 22.7789 116.0256 210° Southwest  Level Estimated
05:23PM 22.6730 115.9586 210° Southwest  Level Estimated
05:24PM 22.5670 115.8916 210° Southwest  Level Estimated
05:25PM 22.4610 115.8247 210° Southwest  Level Estimated
05:26PM 22.3550 115.7579 210° Southwest  Level Estimated
05:27PM 22.2490 115.6913 210° Southwest  Level Estimated
05:28PM 22.1430 115.6247 210° Southwest  Level Estimated
05:29PM 22.0369 115.5582 210° Southwest  Level Estimated
05:30PM 21.9308 115.4919 210° Southwest  Level Estimated
05:31PM 21.8247 115.4256 210° Southwest  Level Estimated
05:32PM 21.7185 115.3594 210° Southwest  Level Estimated
05:33PM 21.6124 115.2934 210° Southwest  Level Estimated
05:34PM 21.5061 115.2274 210° Southwest  Level Estimated
05:35PM 21.3999 115.1615 210° Southwest  Level Estimated
05:36PM 21.2936 115.0957 210° Southwest  Level Estimated
05:37PM 21.1874 115.0300 210° Southwest  Level Estimated
05:38PM 21.0811 114.9644 210° Southwest  Level Estimated
05:39PM 20.9747 114.8989 210° Southwest  Level Estimated
05:40PM 20.8684 114.8335 210° Southwest  Level Estimated
05:41PM 20.7620 114.7682 210° Southwest  Level Estimated
05:42PM 20.6556 114.7030 210° Southwest  Level Estimated
05:43PM 20.5492 114.6379 210° Southwest  Level Estimated
05:44PM 20.4427 114.5728 210° Southwest  Level Estimated
05:45PM 20.3362 114.5079 210° Southwest  Level Estimated
05:46PM 20.2297 114.4430 210° Southwest  Level Estimated
05:47PM 20.1232 114.3783 210° Southwest  Level Estimated
05:48PM 20.0166 114.3136 210° Southwest  Level Estimated
05:49PM 19.9100 114.2490 210° Southwest  Level Estimated
05:50PM 19.8034 114.1845 210° Southwest  Level Estimated
05:51PM 19.6968 114.1200 210° Southwest  Level Estimated
05:52PM 19.5902 114.0557 210° Southwest  Level Estimated
05:53PM 19.4835 113.9915 210° Southwest  Level Estimated
05:54PM 19.3768 113.9273 210° Southwest  Level Estimated
05:55PM 19.2701 113.8632 210° Southwest  Level Estimated
05:56PM 19.1634 113.7992 210° Southwest  Level Estimated
05:57PM 19.0566 113.7353 210° Southwest  Level Estimated
05:58PM 18.9498 113.6715 209° Southwest  Level Estimated
05:59PM 18.8430 113.6077 209° Southwest  Level Estimated
06:00PM 18.7362 113.5440 209° Southwest  Level Estimated
06:01PM 18.6294 113.4805 209° Southwest  Level Estimated
06:02PM 18.5225 113.4169 209° Southwest  Level Estimated
06:03PM 18.4156 113.3535 209° Southwest  Level Estimated
06:04PM 18.3087 113.2902 209° Southwest  Level Estimated
06:05PM 18.2017 113.2269 209° Southwest  Level Estimated
06:06PM 18.0948 113.1637 209° Southwest  Level Estimated
06:07PM 17.9878 113.1006 209° Southwest  Level Estimated
06:08PM 17.8808 113.0375 209° Southwest  Level Estimated
06:09PM 17.7738 112.9746 209° Southwest  Level Estimated
06:10PM 17.6668 112.9117 209° Southwest  Level Estimated
06:11PM 17.5597 112.8488 209° Southwest  Level Estimated
06:12PM 17.4527 112.7861 209° Southwest  Level Estimated
06:13PM 17.3456 112.7234 209° Southwest  Level Estimated
06:14PM 17.2385 112.6608 209° Southwest  Level Estimated
06:15PM 17.1313 112.5983 209° Southwest  Level Estimated
06:16PM 17.0242 112.5359 209° Southwest  Level Estimated
06:17PM 16.9170 112.4735 209° Southwest  Level Estimated
06:18PM 16.8098 112.4112 209° Southwest  Level Estimated
06:19PM 16.7026 112.3489 209° Southwest  Level Estimated
06:20PM 16.5954 112.2868 209° Southwest  Level Estimated
06:21PM 16.4882 112.2247 209° Southwest  Level Estimated
06:22PM 16.3809 112.1626 209° Southwest  Level Estimated
06:23PM 16.2736 112.1007 209° Southwest  Level Estimated
06:24PM 16.1663 112.0388 209° Southwest  Level Estimated
06:25PM 16.0590 111.9770 209° Southwest  Level Estimated
06:26PM 15.9517 111.9152 209° Southwest  Level Estimated
06:27PM 15.8443 111.8535 209° Southwest  Level Estimated
06:28PM 15.7370 111.7919 209° Southwest  Level Estimated
06:29PM 15.6296 111.7303 209° Southwest  Level Estimated
06:30PM 15.5222 111.6688 209° Southwest  Level Estimated
06:31PM 15.4148 111.6074 209° Southwest  Level Estimated
06:32PM 15.3073 111.5460 209° Southwest  Level Estimated
06:33PM 15.1999 111.4847 209° Southwest  Level Estimated
06:34PM 15.0924 111.4234 209° Southwest  Level Estimated
06:35PM 14.9849 111.3622 209° Southwest  Level Estimated
06:36PM 14.8774 111.3011 209° Southwest  Level Estimated
06:37PM 14.7699 111.2401 209° Southwest  Level Estimated
06:38PM 14.6624 111.1791 209° Southwest  Level Estimated
06:39PM 14.5548 111.1181 209° Southwest  Level Estimated
06:40PM 14.4473 111.0572 209° Southwest  Level Estimated
06:41PM 14.3397 110.9964 209° Southwest  Level Estimated
06:42PM 14.2321 110.9357 209° Southwest  Level Estimated
06:43PM 14.1245 110.8749 209° Southwest  Level Estimated
06:44PM 14.0168 110.8143 209° Southwest  Level Estimated
06:45PM 13.9092 110.7537 209° Southwest  Level Estimated
06:46PM 13.8015 110.6932 209° Southwest  Level Estimated
06:47PM 13.6939 110.6327 209° Southwest  Level Estimated
06:48PM 13.5862 110.5723 209° Southwest  Level Estimated
06:49PM 13.4785 110.5119 209° Southwest  Level Estimated
06:50PM 13.3708 110.4516 209° Southwest  Level Estimated
06:51PM 13.2630 110.3913 209° Southwest  Level Estimated
06:52PM 13.1553 110.3311 209° Southwest  Level Estimated
06:53PM 13.0475 110.2709 209° Southwest  Level Estimated
06:54PM 12.9397 110.2108 209° Southwest  Level Estimated
06:55PM 12.8320 110.1508 209° Southwest  Level Estimated
06:56PM 12.7242 110.0908 209° Southwest  Level Estimated
06:57PM 12.6164 110.0308 208° Southwest  Level Estimated
06:58PM 12.5085 109.9709 208° Southwest  Level Estimated
06:59PM 12.4007 109.9111 208° Southwest  Level Estimated
07:00PM 12.2928 109.8513 208° Southwest  Level Estimated
07:01PM 12.1850 109.7915 208° Southwest  Level Estimated
07:02PM 12.0771 109.7318 208° Southwest  Level Estimated
07:03PM 11.9692 109.6722 208° Southwest  Level Estimated
07:04PM 11.8613 109.6126 208° Southwest  Level Estimated
07:05PM 11.7534 109.5530 208° Southwest  Level Estimated
07:06PM 11.6454 109.4935 208° Southwest  Level Estimated
07:07PM 11.5375 109.4340 208° Southwest  Level Estimated
07:08PM 11.4296 109.3746 208° Southwest  Level Estimated
07:09PM 11.3216 109.3152 208° Southwest  Level Estimated
07:10PM 11.2136 109.2559 208° Southwest  Level Estimated
07:11PM 11.1056 109.1966 208° Southwest  Level Estimated
07:12PM 10.9976 109.1374 208° Southwest  Level Estimated
07:13PM 10.8896 109.0782 208° Southwest  Level Estimated
07:14PM 10.7816 109.0190 208° Southwest  Level Estimated
07:15PM 10.6736 108.9599 208° Southwest  Level Estimated
07:16PM 10.5655 108.9008 208° Southwest  Level Estimated
07:17PM 10.4575 108.8418 208° Southwest  Level Estimated
07:18PM 10.3494 108.7828 208° Southwest  Level Estimated
07:19PM 10.2413 108.7239 208° Southwest  Level Estimated
07:20PM 10.1332 108.6649 208° Southwest  Level Estimated
07:21PM 10.0251 108.6061 208° Southwest  Level Estimated
07:22PM 9.9170 108.5472 208° Southwest  Level Estimated
07:23PM 9.8089 108.4885 208° Southwest  Level Estimated
07:24PM 9.7008 108.4297 208° Southwest  Level Estimated
07:25PM 9.5926 108.3710 208° Southwest  Level Estimated
07:26PM 9.4845 108.3123 208° Southwest  Level Estimated
07:27PM 9.3763 108.2537 208° Southwest  Level Estimated
07:28PM 9.2681 108.1951 208° Southwest  Level Estimated
07:29PM 9.1600 108.1365 208° Southwest  Level Estimated
07:30PM 9.0518 108.0780 208° Southwest  Level Estimated
07:31PM 8.9436 108.0195 208° Southwest  Level Estimated
07:32PM 8.8354 107.9610 208° Southwest  Level Estimated
07:33PM 8.7271 107.9026 208° Southwest  Level Estimated
07:34PM 8.6189 107.8442 208° Southwest  Level Estimated
07:35PM 8.5107 107.7858 208° Southwest  Level Estimated
07:36PM 8.4025 107.7275 208° Southwest  Level Estimated
07:37PM 8.2942 107.6692 208° Southwest  Level Estimated
07:38PM 8.1860 107.6109 208° Southwest  Level Estimated
07:39PM 8.0777 107.5527 208° Southwest  Level Estimated
07:40PM 7.9694 107.4945 208° Southwest  Level Estimated
07:41PM 7.8611 107.4363 208° Southwest  Level Estimated
07:42PM 7.7528 107.3782 208° Southwest  Level Estimated
07:43PM 7.6445 107.3201 208° Southwest  Level Estimated
07:44PM 7.5362 107.2620 208° Southwest  Level Estimated
07:45PM 7.4279 107.2040 208° Southwest  Level Estimated
07:46PM 7.3196 107.1459 208° Southwest  Level Estimated
07:47PM 7.2113 107.0880 208° Southwest  Level Estimated
07:48PM 7.1029 107.0300 208° Southwest  Level Estimated
07:49PM 6.9946 106.9720 208° Southwest  Level Estimated
07:50PM 6.8862 106.9141 208° Southwest  Level Estimated
07:51PM 6.7779 106.8562 208° Southwest  Level Estimated
07:52PM 6.6695 106.7984 208° Southwest  Level Estimated
07:53PM 6.5611 106.7405 208° Southwest  Level Estimated
07:54PM 6.4528 106.6827 208° Southwest  Level Estimated
07:55PM 6.3444 106.6250 208° Southwest  Level Estimated
07:56PM 6.2360 106.5672 208° Southwest  Level Estimated
07:57PM 6.1276 106.5095 208° Southwest  Level Estimated
07:58PM 6.0192 106.4518 208° Southwest  Level Estimated
07:59PM 5.9108 106.3941 208° Southwest  Level Estimated
08:00PM 5.8024 106.3364 208° Southwest  Level Estimated
08:01PM 5.6939 106.2787 208° Southwest  Level Estimated
08:02PM 5.5855 106.2211 208° Southwest  Level Estimated
08:03PM 5.4771 106.1635 208° Southwest  Level Estimated
08:04PM 5.3686 106.1059 208° Southwest  Level Estimated
08:05PM 5.2602 106.0484 208° Southwest  Level Estimated
08:06PM 5.1518 105.9909 208° Southwest  Level Estimated
08:07PM 5.0433 105.9333 208° Southwest  Level Estimated
08:08PM 4.9348 105.8758 208° Southwest  Level Estimated
08:09PM 4.8264 105.8184 208° Southwest  Level Estimated
08:10PM 4.7179 105.7609 208° Southwest  Level Estimated
08:11PM 4.6094 105.7034 208° Southwest  Level Estimated
08:12PM 4.5010 105.6460 208° Southwest  Level Estimated
08:13PM 4.3925 105.5886 208° Southwest  Level Estimated
08:14PM 4.2840 105.5312 208° Southwest  Level Estimated
08:15PM 4.1755 105.4738 208° Southwest  Level Estimated
08:16PM 4.0670 105.4165 208° Southwest  Level Estimated
08:17PM 3.9585 105.3591 208° Southwest  Level Estimated
08:18PM 3.8500 105.3018 208° Southwest  Level Estimated
08:19PM 3.7415 105.2445 208° Southwest  Level Estimated
08:20PM 3.6330 105.1872 208° Southwest  Level Estimated
08:21PM 3.5245 105.1299 208° Southwest  Level Estimated
08:22PM 3.4160 105.0726 208° Southwest  Level Estimated
08:23PM 3.3074 105.0153 208° Southwest  Level Estimated
08:24PM 3.1989 104.9581 208° Southwest  Level Estimated
08:25PM 3.0904 104.9008 208° Southwest  Level Estimated
08:26PM 2.9818 104.8436 208° Southwest  Level Estimated
08:27PM 2.8733 104.7864 208° Southwest  Level Estimated
08:28PM 2.7648 104.7292 208° Southwest  Level Estimated
08:29PM 2.6562 104.6720 208° Southwest  Level Estimated
08:30PM 2.5477 104.6148 208° Southwest  Level Estimated
08:31PM 2.4392 104.5576 208° Southwest  Level Estimated
08:32PM 2.3306 104.5005 208° Southwest  Level Estimated
08:33PM 2.2221 104.4433 208° Southwest  Level Estimated
08:34PM 2.1135 104.3862 208° Southwest  Level Estimated
08:35PM 2.0050 104.3290 208° Southwest  Level Estimated
08:36PM 1.8964 104.2719 208° Southwest  Level Estimated
08:37PM 1.7878 104.2148 208° Southwest  Level Estimated
08:38PM 1.6793 104.1577 208° Southwest  Level Estimated
08:39PM 1.5707 104.1005 208° Southwest  Level Estimated
08:40PM 1.4622 104.0434 208° Southwest  Level Estimated
08:41PM 1.3557 103.9875 208° Southwest  Level Estimated
08:42PM 1.3557 103.9875 214° Southwest  Level Estimated
08:43PM 1.3557 103.9875 214° Southwest  Level Estimated
08:44PM 1.3557 103.9875 214° Southwest  Level Estimated
08:45PM 1.3557 103.9875 214° Southwest  Level Estimated
08:46PM 1.3557 103.9875 214° Southwest  Level Estimated
08:47PM 1.3557 103.9875 214° Southwest  Level Estimated
08:48PM 1.3557 103.9875 214° Southwest  Level Estimated
08:49PM 1.3557 103.9875 214° Southwest  Level Estimated
08:50PM 1.3557 103.9875 214° Southwest  Level Estimated
08:51PM 1.3557 103.9875 214° Southwest  Level Estimated
08:52PM 1.3557 103.9875 214° Southwest  Level Estimated
08:53PM 1.3557 103.9875 214° Southwest  Level Estimated
08:54PM 1.3557 103.9875 214° Southwest  Level Estimated
08:55PM 1.3557 103.9875 214° Southwest  Level Estimated
08:56PM 1.3557 103.9875 214° Southwest  Level Estimated
08:57PM 1.3557 103.9875 214° Southwest  Level Estimated